createdAt,value
2022-12-11T00:00:53.268Z,5.30
2022-12-11T00:03:20.829Z,4.73
2022-12-11T00:05:48.477Z,4.90
2022-12-11T00:08:16.013Z,5.40
2022-12-11T00:10:50.344Z,4.50
2022-12-11T00:13:17.883Z,5.23
2022-12-11T00:15:45.343Z,5.23
2022-12-11T00:18:14.780Z,4.90
2022-12-11T00:20:42.603Z,5.50
2022-12-11T00:23:11.094Z,5.83
2022-12-11T00:25:46.427Z,5.70
2022-12-11T00:28:16.195Z,5.57
2022-12-11T00:30:43.677Z,5.17
2022-12-11T00:33:12.845Z,5.63
2022-12-11T00:35:42.437Z,6.10
2022-12-11T00:38:15.701Z,4.83
2022-12-11T00:40:43.554Z,6.40
2022-12-11T00:43:11.386Z,6.27
2022-12-11T00:45:42.710Z,5.07
2022-12-11T00:48:11.780Z,6.93
2022-12-11T00:50:40.132Z,6.23
2022-12-11T00:53:08.647Z,5.70
2022-12-11T00:55:42.849Z,5.63
2022-12-11T00:58:11.503Z,6.73
2022-12-11T01:00:40.187Z,6.27
2022-12-11T01:03:08.282Z,6.20
2022-12-11T01:05:36.049Z,6.63
2022-12-11T01:08:04.486Z,6.57
2022-12-11T01:10:33.002Z,7.17
2022-12-11T01:13:06.049Z,6.40
2022-12-11T01:15:41.523Z,6.20
2022-12-11T01:18:14.867Z,6.77
2022-12-11T01:20:43.350Z,6.07
2022-12-11T01:23:13.098Z,6.97
2022-12-11T01:25:41.944Z,5.87
2022-12-11T01:28:09.898Z,6.27
2022-12-11T01:30:37.933Z,6.67
2022-12-11T01:33:05.622Z,6.67
2022-12-11T01:35:33.179Z,6.73
2022-12-11T01:38:01.199Z,6.00
2022-12-11T01:40:28.648Z,7.00
2022-12-11T01:42:56.147Z,7.00
2022-12-11T01:45:39.467Z,7.77
2022-12-11T01:48:20.136Z,7.40
2022-12-11T01:50:49.749Z,7.60
2022-12-11T01:53:21.864Z,7.40
2022-12-11T01:55:51.701Z,8.30
2022-12-11T01:58:22.600Z,8.77
2022-12-11T02:00:51.441Z,8.63
2022-12-11T02:03:19.135Z,8.93
2022-12-11T02:05:46.607Z,9.00
2022-12-11T02:08:14.863Z,8.97
2022-12-11T02:10:49.555Z,8.87
2022-12-11T02:13:26.999Z,8.83
2022-12-11T02:16:00.988Z,9.20
2022-12-11T02:18:38.976Z,8.83
2022-12-11T02:21:28.110Z,8.07
2022-12-11T02:24:04.431Z,8.60
2022-12-11T02:26:59.170Z,9.07
2022-12-11T02:29:35.366Z,7.23
2022-12-11T02:32:49.489Z,7.23
2022-12-11T02:35:35.697Z,8.30
2022-12-11T02:38:10.492Z,7.47
2022-12-11T02:40:41.025Z,6.60
2022-12-11T02:43:11.898Z,7.90
2022-12-11T02:45:41.901Z,6.97
2022-12-11T02:48:11.744Z,8.13
2022-12-11T02:50:44.160Z,6.80
2022-12-11T02:53:13.707Z,7.97
2022-12-11T02:55:42.734Z,7.80
2022-12-11T02:58:18.403Z,7.97
2022-12-11T03:00:46.584Z,7.87
2022-12-11T03:03:14.507Z,7.57
2022-12-11T03:05:42.864Z,7.20
2022-12-11T03:08:10.528Z,7.17
2022-12-11T03:10:38.124Z,7.40
2022-12-11T03:13:05.627Z,7.13
2022-12-11T03:15:58.645Z,7.73
2022-12-11T03:18:35.729Z,6.50
2022-12-11T03:21:10.467Z,6.75
2022-12-11T03:24:05.193Z,6.37
2022-12-11T03:26:39.413Z,6.50
2022-12-11T03:29:21.117Z,6.67
2022-12-11T03:31:58.616Z,5.87
2022-12-11T03:35:10.177Z,6.15
2022-12-11T03:37:41.352Z,6.07
2022-12-11T03:40:16.157Z,6.00
2022-12-11T03:42:46.941Z,5.63
2022-12-11T03:45:16.205Z,5.77
2022-12-11T03:47:45.361Z,6.73
2022-12-11T03:50:16.555Z,6.03
2022-12-11T03:52:46.723Z,6.30
2022-12-11T03:55:17.275Z,5.90
2022-12-11T03:57:45.435Z,6.43
2022-12-11T04:00:18.944Z,5.90
2022-12-11T04:03:11.356Z,5.73
2022-12-11T04:05:42.610Z,6.20
2022-12-11T04:08:13.100Z,6.00
2022-12-11T04:10:41.454Z,6.10
2022-12-11T04:13:10.137Z,5.60
2022-12-11T04:15:39.486Z,6.60
2022-12-11T04:18:26.316Z,4.87
2022-12-11T04:21:13.471Z,7.60
2022-12-11T04:23:59.722Z,6.82
2022-12-11T04:26:27.401Z,6.80
2022-12-11T04:28:54.852Z,7.37
2022-12-11T04:31:22.842Z,7.13
2022-12-11T04:33:50.594Z,7.70
2022-12-11T04:36:18.255Z,7.83
2022-12-11T04:38:47.206Z,6.37
2022-12-11T04:41:16.500Z,7.13
2022-12-11T04:43:45.391Z,5.93
2022-12-11T04:46:19.397Z,6.60
2022-12-11T04:48:49.276Z,7.53
2022-12-11T04:51:20.490Z,7.43
2022-12-11T04:53:48.075Z,7.23
2022-12-11T04:56:16.668Z,7.73
2022-12-11T04:58:45.269Z,7.97
2022-12-11T05:01:18.654Z,9.10
2022-12-11T05:03:46.845Z,8.50
2022-12-11T05:06:15.119Z,7.30
2022-12-11T05:08:43.907Z,7.60
2022-12-11T05:11:13.726Z,7.63
2022-12-11T05:13:41.841Z,7.57
2022-12-11T05:16:11.357Z,7.60
2022-12-11T05:18:39.078Z,7.83
2022-12-11T05:21:10.629Z,7.60
2022-12-11T05:23:39.202Z,7.53
2022-12-11T05:26:11.370Z,7.37
2022-12-11T05:28:39.970Z,7.67
2022-12-11T05:31:19.490Z,7.67
2022-12-11T05:33:50.330Z,6.93
2022-12-11T05:36:21.158Z,6.93
2022-12-11T05:38:49.106Z,7.43
2022-12-11T05:41:19.628Z,6.27
2022-12-11T05:43:47.723Z,7.17
2022-12-11T05:46:21.027Z,6.90
2022-12-11T05:48:51.918Z,6.50
2022-12-11T05:51:20.014Z,7.03
2022-12-11T05:53:50.069Z,6.57
2022-12-11T05:56:23.700Z,7.20
2022-12-11T05:58:51.387Z,6.47
2022-12-11T06:01:20.815Z,7.53
2022-12-11T06:03:48.410Z,7.50
2022-12-11T06:06:16.566Z,7.90
2022-12-11T06:08:44.042Z,7.73
2022-12-11T06:11:14.286Z,8.17
2022-12-11T06:13:43.231Z,7.90
2022-12-11T06:16:10.985Z,8.00
2022-12-11T06:18:40.700Z,8.10
2022-12-11T06:21:16.771Z,7.53
2022-12-11T06:23:45.606Z,7.80
2022-12-11T06:26:14.704Z,7.17
2022-12-11T06:28:42.754Z,6.90
2022-12-11T06:31:10.528Z,6.93
2022-12-11T06:33:38.423Z,7.20
2022-12-11T06:36:17.979Z,7.43
2022-12-11T06:38:45.785Z,8.13
2022-12-11T06:41:13.749Z,7.47
2022-12-11T06:43:43.014Z,7.47
2022-12-11T06:46:16.754Z,7.83
2022-12-11T06:48:45.311Z,8.47
2022-12-11T06:51:15.319Z,7.40
2022-12-11T06:53:43.125Z,8.30
2022-12-11T06:56:13.592Z,7.63
2022-12-11T06:58:41.884Z,7.43
2022-12-11T07:01:19.072Z,7.27
2022-12-11T07:03:46.806Z,7.68
2022-12-11T07:06:15.121Z,8.47
2022-12-11T07:08:43.682Z,8.83
2022-12-11T07:11:13.557Z,8.47
2022-12-11T07:13:44.673Z,9.77
2022-12-11T07:16:14.058Z,8.97
2022-12-11T07:18:49.793Z,8.80
2022-12-11T07:21:18.556Z,8.27
2022-12-11T07:23:46.159Z,8.37
2022-12-11T07:26:16.096Z,8.17
2022-12-11T07:28:43.955Z,8.57
2022-12-11T07:31:15.194Z,8.37
2022-12-11T07:33:43.563Z,7.37
2022-12-11T07:36:13.305Z,8.60
2022-12-11T07:38:41.420Z,7.93
2022-12-11T07:41:12.589Z,8.13
2022-12-11T07:43:40.852Z,9.03
2022-12-11T07:46:20.898Z,9.93
2022-12-11T07:48:49.028Z,8.80
2022-12-11T07:51:22.991Z,8.27
2022-12-11T07:53:50.748Z,8.73
2022-12-11T07:56:19.163Z,8.77
2022-12-11T07:58:47.740Z,8.43
2022-12-11T08:01:17.601Z,8.90
2022-12-11T08:03:45.361Z,9.53
2022-12-11T08:06:13.633Z,8.97
2022-12-11T08:08:42.183Z,9.63
2022-12-11T08:11:13.679Z,9.87
2022-12-11T08:13:42.576Z,9.20
2022-12-11T08:16:13.238Z,9.70
2022-12-11T08:18:42.206Z,10.07
2022-12-11T08:21:12.781Z,9.77
2022-12-11T08:23:40.602Z,10.17
2022-12-11T08:26:11.700Z,10.30
2022-12-11T08:28:39.529Z,10.73
2022-12-11T08:31:08.938Z,10.50
2022-12-11T08:33:37.833Z,11.37
2022-12-11T08:36:07.247Z,10.73
2022-12-11T08:38:35.866Z,11.10
2022-12-11T08:41:10.003Z,11.30
2022-12-11T08:43:38.126Z,10.97
2022-12-11T08:46:05.798Z,11.87
2022-12-11T08:48:37.917Z,11.40
2022-12-11T08:51:08.898Z,11.20
2022-12-11T08:53:36.789Z,11.87
2022-12-11T08:56:06.447Z,10.80
2022-12-11T08:58:34.159Z,11.43
2022-12-11T09:01:10.698Z,11.50
2022-12-11T09:03:39.571Z,12.03
2022-12-11T09:06:09.069Z,10.93
2022-12-11T09:08:36.936Z,12.10
2022-12-11T09:11:32.675Z,12.50
2022-12-11T09:14:06.739Z,11.63
2022-12-11T09:16:40.732Z,11.97
2022-12-11T09:19:14.086Z,13.07
2022-12-11T09:21:42.969Z,11.70
2022-12-11T09:24:11.997Z,12.90
2022-12-11T09:26:40.541Z,12.77
2022-12-11T09:29:08.849Z,12.97
2022-12-11T09:31:38.857Z,13.50
2022-12-11T09:34:08.896Z,12.47
2022-12-11T09:36:39.334Z,12.20
2022-12-11T09:39:08.569Z,12.17
2022-12-11T09:41:47.343Z,11.43
2022-12-11T09:44:44.089Z,12.67
2022-12-11T09:47:32.896Z,10.40
2022-12-11T09:50:03.411Z,10.80
2022-12-11T09:52:37.315Z,10.70
2022-12-11T09:55:16.780Z,11.27
2022-12-11T09:57:56.258Z,11.17
2022-12-11T10:00:36.063Z,10.93
2022-12-11T10:03:09.184Z,11.93
2022-12-11T10:05:41.735Z,10.67
2022-12-11T10:08:20.276Z,10.60
2022-12-11T10:11:04.773Z,11.70
2022-12-11T10:13:50.719Z,11.77
2022-12-11T10:16:27.031Z,10.97
2022-12-11T10:18:54.717Z,11.17
2022-12-11T10:21:23.024Z,10.70
2022-12-11T15:31:33.476Z,4.00
2022-12-11T15:34:02.055Z,4.40
2022-12-11T15:36:35.359Z,3.87
2022-12-11T15:39:05.859Z,4.30
2022-12-11T15:41:34.862Z,4.30
2022-12-11T15:44:04.624Z,4.33
2022-12-11T15:46:36.579Z,4.60
2022-12-11T15:49:11.730Z,4.90
2022-12-11T15:51:43.136Z,4.30
2022-12-11T15:54:11.149Z,3.80
2022-12-11T15:56:38.807Z,4.17
2022-12-11T15:59:07.122Z,4.30
2022-12-11T16:01:35.141Z,4.33
2022-12-11T16:04:05.121Z,4.37
2022-12-11T16:06:33.713Z,4.00
2022-12-11T16:09:03.487Z,4.17
2022-12-11T16:11:31.464Z,5.50
2022-12-11T16:13:59.084Z,4.93
2022-12-11T16:16:26.712Z,4.57
2022-12-11T16:18:54.191Z,4.50
2022-12-11T16:21:21.899Z,4.63
2022-12-11T16:23:49.724Z,4.00
2022-12-11T16:26:17.266Z,3.73
2022-12-11T16:28:44.737Z,4.17
2022-12-11T16:31:13.646Z,4.47
2022-12-11T16:33:41.342Z,4.23
2022-12-11T16:36:16.713Z,3.87
2022-12-11T16:38:53.492Z,4.00
2022-12-11T16:41:24.976Z,3.58
2022-12-11T16:43:54.240Z,3.60
2022-12-11T16:46:23.091Z,3.63
2022-12-11T16:48:50.601Z,3.47
2022-12-11T16:51:18.437Z,3.50
2022-12-11T16:53:46.481Z,3.50
2022-12-11T16:56:14.044Z,3.87
2022-12-11T16:58:41.604Z,2.73
2022-12-11T17:01:12.960Z,3.57
2022-12-11T17:03:42.684Z,3.33
2022-12-11T17:06:13.600Z,3.13
2022-12-11T17:08:42.815Z,3.37
2022-12-11T17:11:14.032Z,2.90
2022-12-11T17:13:41.796Z,2.90
2022-12-11T17:16:12.785Z,3.20
2022-12-11T17:18:40.690Z,2.70
2022-12-11T17:21:14.605Z,3.17
2022-12-11T17:23:42.372Z,3.50
2022-12-11T17:26:10.218Z,3.30
2022-12-11T17:28:38.617Z,3.20
2022-12-11T17:31:13.016Z,3.30
2022-12-11T17:33:40.670Z,3.27
2022-12-11T17:36:09.030Z,3.60
2022-12-11T17:38:36.636Z,3.27
2022-12-11T17:41:08.786Z,3.00
2022-12-11T17:43:36.294Z,3.00
2022-12-11T17:46:04.841Z,3.00
2022-12-11T17:48:32.840Z,3.17
2022-12-11T17:51:04.137Z,3.30
2022-12-11T17:53:33.482Z,3.30
2022-12-11T17:56:02.383Z,2.90
2022-12-11T17:58:30.694Z,2.63
2022-12-11T18:01:00.897Z,2.67
2022-12-11T18:03:29.212Z,2.60
2022-12-11T18:06:05.209Z,2.90
2022-12-11T18:08:33.199Z,3.07
2022-12-11T18:11:11.626Z,3.00
2022-12-11T18:13:39.838Z,2.37
2022-12-11T18:16:13.686Z,2.80
2022-12-11T18:18:41.341Z,2.93
2022-12-11T18:21:13.712Z,2.23
2022-12-11T18:23:41.207Z,2.37
2022-12-11T18:26:08.660Z,2.63
2022-12-11T18:28:36.226Z,2.77
2022-12-11T18:31:07.642Z,2.60
2022-12-11T18:33:37.609Z,1.93
2022-12-11T18:36:06.451Z,2.43
2022-12-11T18:38:34.291Z,2.00
2022-12-11T18:41:06.895Z,2.73
2022-12-11T18:43:35.274Z,2.10
2022-12-11T18:46:07.870Z,2.60
2022-12-11T18:48:35.544Z,2.30
2022-12-11T18:51:09.884Z,2.73
2022-12-11T18:53:39.424Z,2.10
2022-12-11T18:56:10.218Z,1.97
2022-12-11T18:58:38.321Z,1.80
2022-12-11T19:01:12.075Z,1.87
2022-12-11T19:03:39.892Z,1.40
2022-12-11T19:06:19.570Z,1.93
2022-12-11T19:08:47.836Z,2.00
2022-12-11T19:11:17.191Z,1.57
2022-12-11T19:13:45.523Z,1.70
2022-12-11T19:16:24.264Z,1.60
2022-12-11T19:19:00.735Z,1.53
2022-12-11T19:21:28.405Z,1.80
2022-12-11T19:23:56.080Z,1.73
2022-12-11T19:26:24.536Z,1.40
2022-12-11T19:28:53.021Z,1.67
2022-12-11T19:31:22.740Z,2.10
2022-12-11T19:33:50.422Z,1.90
2022-12-11T19:36:26.744Z,1.67
2022-12-11T19:39:34.637Z,1.40
2022-12-11T19:47:03.334Z,1.80
2022-12-11T19:50:14.421Z,1.27
2022-12-11T19:53:30.162Z,1.60
2022-12-11T19:55:57.702Z,1.30
2022-12-11T19:58:25.337Z,1.90
2022-12-11T20:00:52.864Z,1.50
2022-12-11T20:03:20.782Z,1.47
2022-12-11T20:05:48.345Z,2.33
2022-12-11T20:08:43.069Z,1.60
2022-12-11T20:11:10.564Z,1.45
2022-12-11T20:13:43.209Z,1.43
2022-12-11T20:16:14.296Z,1.40
2022-12-11T20:18:41.944Z,1.73
2022-12-11T20:21:15.618Z,1.77
2022-12-11T20:23:46.486Z,1.80
2022-12-11T20:26:20.004Z,1.70
2022-12-11T20:28:50.559Z,1.87
2022-12-11T20:31:20.850Z,2.07
2022-12-11T20:33:49.971Z,2.13
2022-12-11T20:36:21.038Z,1.80
2022-12-11T20:38:49.162Z,1.93
2022-12-11T20:41:20.255Z,2.10
2022-12-11T20:43:51.146Z,1.80
2022-12-11T20:46:18.936Z,2.20
2022-12-11T20:48:47.277Z,2.33
2022-12-11T20:51:23.865Z,2.30
2022-12-11T20:54:01.343Z,2.10
2022-12-11T20:56:30.581Z,3.00
2022-12-11T20:58:59.995Z,2.70
2022-12-11T21:01:30.961Z,3.07
2022-12-11T21:03:59.563Z,2.90
2022-12-11T21:06:31.332Z,3.20
2022-12-11T21:09:01.666Z,3.07
2022-12-11T21:11:29.599Z,2.90
2022-12-11T21:13:57.141Z,3.23
2022-12-11T21:16:24.973Z,3.40
2022-12-11T21:18:56.545Z,3.03
2022-12-11T21:21:24.100Z,3.60
2022-12-11T21:23:51.967Z,4.77
2022-12-11T21:26:19.917Z,4.67
2022-12-11T21:28:47.373Z,5.00
2022-12-11T21:31:17.442Z,3.93
2022-12-11T21:33:46.386Z,4.97
2022-12-11T21:36:15.630Z,4.70
2022-12-11T21:38:44.291Z,5.10
2022-12-11T21:41:18.627Z,5.57
2022-12-11T21:44:40.853Z,6.00
2022-12-11T21:46:38.370Z,6.10
2022-12-11T21:49:08.270Z,6.83
2022-12-11T21:51:41.367Z,7.60
2022-12-11T21:54:14.513Z,7.73
2022-12-11T21:56:42.618Z,7.70
2022-12-11T21:59:10.148Z,8.67
2022-12-11T22:01:42.305Z,8.83
2022-12-11T22:04:11.320Z,9.37
2022-12-11T22:06:42.065Z,9.43
2022-12-11T22:09:10.847Z,10.20
2022-12-11T22:11:39.017Z,10.93
2022-12-11T22:14:07.031Z,10.90
2022-12-11T22:16:35.473Z,11.60
2022-12-11T22:19:04.505Z,12.10
2022-12-11T22:21:32.122Z,12.37
2022-12-11T22:24:00.042Z,11.50
2022-12-11T22:26:28.386Z,13.50
2022-12-11T22:28:57.030Z,12.63
2022-12-11T22:31:26.736Z,13.63
2022-12-11T22:33:55.380Z,13.90
2022-12-11T22:36:25.399Z,13.00
2022-12-11T22:38:53.304Z,14.00
2022-12-11T22:41:23.689Z,13.23
2022-12-11T22:43:51.406Z,14.03
2022-12-11T22:46:20.655Z,14.77
2022-12-11T22:48:48.317Z,14.00
2022-12-11T22:51:16.220Z,14.27
2022-12-11T22:53:44.268Z,13.37
2022-12-11T22:56:13.837Z,16.00
2022-12-11T22:58:41.824Z,13.80
2022-12-11T23:01:12.671Z,13.67
2022-12-11T23:03:40.612Z,14.47
2022-12-11T23:06:11.350Z,13.37
2022-12-11T23:08:40.316Z,13.40
2022-12-11T23:11:27.827Z,13.47
2022-12-11T23:13:57.715Z,13.30
2022-12-11T23:16:29.421Z,14.93
2022-12-11T23:18:57.650Z,12.17
2022-12-11T23:21:26.790Z,13.23
2022-12-11T23:23:55.598Z,13.03
2022-12-11T23:26:23.588Z,13.17
2022-12-11T23:28:51.200Z,10.90
2022-12-11T23:31:18.873Z,13.07
2022-12-11T23:33:46.401Z,12.40
2022-12-11T23:36:14.130Z,13.60
2022-12-11T23:38:41.639Z,11.77
2022-12-11T23:41:12.076Z,11.93
2022-12-11T23:43:40.327Z,12.30
2022-12-11T23:46:12.479Z,12.37
2022-12-11T23:48:40.746Z,12.97
2022-12-11T23:51:09.474Z,12.60
2022-12-11T23:53:37.163Z,12.13
2022-12-11T23:56:07.266Z,10.87
2022-12-11T23:58:38.183Z,11.20
